sensor_id;sensor_type;location;lat;lon;timestamp;pressure;altitude;pressure_sealevel;temperature;humidity
28027;BME280;15344;52.342;-1.290;2023-02-10T00:02:01;102235.21;;;7.77;53.59
28027;BME280;15344;52.342;-1.290;2023-02-10T00:04:26;102233.13;;;7.58;54.46
28027;BME280;15344;52.342;-1.290;2023-02-10T00:06:51;102235.36;;;7.07;54.54
28027;BME280;15344;52.342;-1.290;2023-02-10T00:09:17;102229.57;;;7.40;54.17
28027;BME280;15344;52.342;-1.290;2023-02-10T00:11:42;102229.72;;;7.53;54.42
28027;BME280;15344;52.342;-1.290;2023-02-10T00:14:08;102232.10;;;7.34;54.74
28027;BME280;15344;52.342;-1.290;2023-02-10T00:16:32;102229.64;;;7.16;55.46
28027;BME280;15344;52.342;-1.290;2023-02-10T00:18:58;102220.64;;;7.42;55.21
28027;BME280;15344;52.342;-1.290;2023-02-10T00:21:23;102222.31;;;7.19;55.70
28027;BME280;15344;52.342;-1.290;2023-02-10T00:23:50;102225.36;;;7.28;55.79
28027;BME280;15344;52.342;-1.290;2023-02-10T00:26:14;102220.50;;;7.61;54.84
28027;BME280;15344;52.342;-1.290;2023-02-10T00:28:40;102225.04;;;7.35;55.96
28027;BME280;15344;52.342;-1.290;2023-02-10T00:31:06;102230.48;;;6.98;56.02
28027;BME280;15344;52.342;-1.290;2023-02-10T00:33:31;102227.41;;;7.05;56.48
28027;BME280;15344;52.342;-1.290;2023-02-10T00:35:57;102227.61;;;7.20;56.00
28027;BME280;15344;52.342;-1.290;2023-02-10T00:38:22;102220.91;;;7.41;55.70
28027;BME280;15344;52.342;-1.290;2023-02-10T00:40:47;102217.58;;;7.02;56.75
28027;BME280;15344;52.342;-1.290;2023-02-10T00:43:12;102206.43;;;7.27;55.95
28027;BME280;15344;52.342;-1.290;2023-02-10T00:45:38;102202.54;;;7.14;56.36
28027;BME280;15344;52.342;-1.290;2023-02-10T00:48:04;102205.87;;;7.43;55.63
28027;BME280;15344;52.342;-1.290;2023-02-10T00:50:29;102204.99;;;7.46;55.59
28027;BME280;15344;52.342;-1.290;2023-02-10T00:52:55;102205.35;;;7.09;55.58
28027;BME280;15344;52.342;-1.290;2023-02-10T00:55:20;102207.84;;;7.11;55.58
28027;BME280;15344;52.342;-1.290;2023-02-10T00:57:46;102212.63;;;7.08;55.78
28027;BME280;15344;52.342;-1.290;2023-02-10T01:00:12;102212.21;;;6.75;57.29
28027;BME280;15344;52.342;-1.290;2023-02-10T01:02:37;102212.87;;;6.43;59.95
28027;BME280;15344;52.342;-1.290;2023-02-10T01:05:03;102211.35;;;6.81;57.58
28027;BME280;15344;52.342;-1.290;2023-02-10T01:07:28;102208.57;;;6.75;57.12
28027;BME280;15344;52.342;-1.290;2023-02-10T01:09:53;102207.23;;;6.46;57.49
28027;BME280;15344;52.342;-1.290;2023-02-10T01:12:18;102209.31;;;6.83;56.73
28027;BME280;15344;52.342;-1.290;2023-02-10T01:14:43;102208.10;;;6.27;58.29
28027;BME280;15344;52.342;-1.290;2023-02-10T01:17:09;102210.30;;;6.48;58.59
28027;BME280;15344;52.342;-1.290;2023-02-10T01:19:34;102214.13;;;6.49;57.87
28027;BME280;15344;52.342;-1.290;2023-02-10T01:21:59;102218.05;;;6.75;57.22
28027;BME280;15344;52.342;-1.290;2023-02-10T01:24:24;102222.25;;;6.25;57.59
28027;BME280;15344;52.342;-1.290;2023-02-10T01:26:50;102222.53;;;5.22;61.55
28027;BME280;15344;52.342;-1.290;2023-02-10T01:29:15;102223.15;;;6.29;58.50
28027;BME280;15344;52.342;-1.290;2023-02-10T01:31:41;102224.65;;;6.67;58.67
28027;BME280;15344;52.342;-1.290;2023-02-10T01:34:06;102231.21;;;6.05;59.37
28027;BME280;15344;52.342;-1.290;2023-02-10T01:36:32;102233.85;;;6.39;58.92
28027;BME280;15344;52.342;-1.290;2023-02-10T01:38:57;102230.96;;;6.60;59.47
28027;BME280;15344;52.342;-1.290;2023-02-10T01:41:23;102224.65;;;6.16;59.25
28027;BME280;15344;52.342;-1.290;2023-02-10T01:43:53;102226.01;;;5.46;63.80
28027;BME280;15344;52.342;-1.290;2023-02-10T01:46:13;102222.61;;;5.47;61.37
28027;BME280;15344;52.342;-1.290;2023-02-10T01:48:38;102224.82;;;6.68;59.44
28027;BME280;15344;52.342;-1.290;2023-02-10T01:51:06;102226.49;;;6.34;60.12
28027;BME280;15344;52.342;-1.290;2023-02-10T01:53:29;102228.23;;;6.38;58.58
28027;BME280;15344;52.342;-1.290;2023-02-10T01:55:57;102228.46;;;6.32;58.71
28027;BME280;15344;52.342;-1.290;2023-02-10T01:58:23;102228.17;;;6.52;58.42
28027;BME280;15344;52.342;-1.290;2023-02-10T02:00:45;102226.31;;;6.83;58.69
28027;BME280;15344;52.342;-1.290;2023-02-10T02:03:11;102228.24;;;6.70;57.98
28027;BME280;15344;52.342;-1.290;2023-02-10T02:05:38;102235.19;;;6.69;58.76
28027;BME280;15344;52.342;-1.290;2023-02-10T02:08:04;102226.86;;;6.81;58.51
28027;BME280;15344;52.342;-1.290;2023-02-10T02:12:57;102218.59;;;6.82;58.26
28027;BME280;15344;52.342;-1.290;2023-02-10T02:15:23;102217.69;;;6.61;58.94
28027;BME280;15344;52.342;-1.290;2023-02-10T02:17:48;102226.84;;;6.23;59.17
28027;BME280;15344;52.342;-1.290;2023-02-10T02:22:48;102214.15;;;5.94;60.50
28027;BME280;15344;52.342;-1.290;2023-02-10T02:30:00;102213.59;;;6.09;62.33
28027;BME280;15344;52.342;-1.290;2023-02-10T02:32:17;102210.67;;;5.46;64.55
28027;BME280;15344;52.342;-1.290;2023-02-10T02:34:45;102204.75;;;5.24;65.36
28027;BME280;15344;52.342;-1.290;2023-02-10T02:37:10;102206.32;;;5.28;66.98
28027;BME280;15344;52.342;-1.290;2023-02-10T02:39:32;102203.94;;;4.68;67.26
28027;BME280;15344;52.342;-1.290;2023-02-10T02:42:14;102200.61;;;5.37;67.25
28027;BME280;15344;52.342;-1.290;2023-02-10T02:44:22;102193.08;;;5.39;66.44
28027;BME280;15344;52.342;-1.290;2023-02-10T02:46:54;102188.77;;;5.59;64.82
28027;BME280;15344;52.342;-1.290;2023-02-10T02:49:17;102178.79;;;5.77;64.11
28027;BME280;15344;52.342;-1.290;2023-02-10T02:51:45;102162.80;;;5.93;63.31
28027;BME280;15344;52.342;-1.290;2023-02-10T02:54:13;102151.99;;;5.60;64.85
28027;BME280;15344;52.342;-1.290;2023-02-10T02:56:33;102161.14;;;5.53;65.80
28027;BME280;15344;52.342;-1.290;2023-02-10T02:58:59;102161.86;;;5.82;65.06
28027;BME280;15344;52.342;-1.290;2023-02-10T03:01:25;102160.55;;;5.95;64.18
28027;BME280;15344;52.342;-1.290;2023-02-10T03:03:46;102163.05;;;6.13;63.51
28027;BME280;15344;52.342;-1.290;2023-02-10T03:06:11;102169.48;;;6.08;63.83
28027;BME280;15344;52.342;-1.290;2023-02-10T03:08:38;102171.23;;;5.43;64.50
28027;BME280;15344;52.342;-1.290;2023-02-10T03:11:02;102170.34;;;5.60;64.27
28027;BME280;15344;52.342;-1.290;2023-02-10T03:13:27;102173.62;;;5.46;65.02
28027;BME280;15344;52.342;-1.290;2023-02-10T03:15:53;102167.30;;;6.24;63.72
28027;BME280;15344;52.342;-1.290;2023-02-10T03:18:19;102156.08;;;6.33;62.75
28027;BME280;15344;52.342;-1.290;2023-02-10T03:20:45;102150.52;;;5.91;63.28
28027;BME280;15344;52.342;-1.290;2023-02-10T03:23:15;102148.00;;;6.09;63.87
28027;BME280;15344;52.342;-1.290;2023-02-10T03:25:36;102144.52;;;5.43;65.17
28027;BME280;15344;52.342;-1.290;2023-02-10T03:28:01;102153.59;;;6.01;65.00
28027;BME280;15344;52.342;-1.290;2023-02-10T03:30:27;102142.95;;;5.89;63.88
28027;BME280;15344;52.342;-1.290;2023-02-10T03:32:52;102131.70;;;5.62;65.14
28027;BME280;15344;52.342;-1.290;2023-02-10T03:35:18;102140.03;;;5.08;68.08
28027;BME280;15344;52.342;-1.290;2023-02-10T03:37:44;102138.38;;;4.94;68.62
28027;BME280;15344;52.342;-1.290;2023-02-10T03:40:10;102142.15;;;4.62;70.85
28027;BME280;15344;52.342;-1.290;2023-02-10T03:42:34;102135.42;;;5.26;69.39
28027;BME280;15344;52.342;-1.290;2023-02-10T03:45:00;102124.64;;;4.79;69.95
28027;BME280;15344;52.342;-1.290;2023-02-10T03:47:26;102121.93;;;4.41;72.53
28027;BME280;15344;52.342;-1.290;2023-02-10T03:49:51;102124.52;;;4.35;72.94
28027;BME280;15344;52.342;-1.290;2023-02-10T03:52:17;102128.75;;;4.77;71.93
28027;BME280;15344;52.342;-1.290;2023-02-10T03:54:42;102129.61;;;4.27;73.62
28027;BME280;15344;52.342;-1.290;2023-02-10T03:57:07;102130.89;;;4.84;72.19
28027;BME280;15344;52.342;-1.290;2023-02-10T03:59:33;102128.17;;;4.73;72.36
28027;BME280;15344;52.342;-1.290;2023-02-10T04:01:59;102126.92;;;4.82;71.71
28027;BME280;15344;52.342;-1.290;2023-02-10T04:04:25;102124.05;;;4.96;71.33
28027;BME280;15344;52.342;-1.290;2023-02-10T04:06:50;102119.22;;;5.23;71.99
28027;BME280;15344;52.342;-1.290;2023-02-10T04:09:16;102121.31;;;4.89;71.67
28027;BME280;15344;52.342;-1.290;2023-02-10T04:11:41;102127.93;;;4.57;72.14
28027;BME280;15344;52.342;-1.290;2023-02-10T04:14:07;102128.44;;;4.29;73.39
28027;BME280;15344;52.342;-1.290;2023-02-10T04:16:32;102125.97;;;5.18;70.29
28027;BME280;15344;52.342;-1.290;2023-02-10T04:18:58;102125.09;;;5.44;69.30
28027;BME280;15344;52.342;-1.290;2023-02-10T04:21:24;102133.28;;;5.03;70.87
28027;BME280;15344;52.342;-1.290;2023-02-10T04:23:49;102131.08;;;5.27;69.89
28027;BME280;15344;52.342;-1.290;2023-02-10T04:26:14;102126.05;;;5.67;68.63
28027;BME280;15344;52.342;-1.290;2023-02-10T04:28:39;102130.37;;;4.97;69.43
28027;BME280;15344;52.342;-1.290;2023-02-10T04:31:05;102133.12;;;5.19;70.17
28027;BME280;15344;52.342;-1.290;2023-02-10T04:33:31;102140.07;;;4.99;70.51
28027;BME280;15344;52.342;-1.290;2023-02-10T04:35:56;102136.05;;;5.21;70.28
28027;BME280;15344;52.342;-1.290;2023-02-10T04:38:22;102141.14;;;4.96;70.61
28027;BME280;15344;52.342;-1.290;2023-02-10T04:40:47;102140.04;;;4.59;72.32
28027;BME280;15344;52.342;-1.290;2023-02-10T04:43:13;102136.11;;;4.76;71.80
28027;BME280;15344;52.342;-1.290;2023-02-10T04:45:38;102138.51;;;4.51;75.47
28027;BME280;15344;52.342;-1.290;2023-02-10T04:48:03;102129.55;;;3.65;78.39
28027;BME280;15344;52.342;-1.290;2023-02-10T04:50:29;102128.23;;;4.04;78.38
28027;BME280;15344;52.342;-1.290;2023-02-10T04:52:55;102132.53;;;4.52;77.73
28027;BME280;15344;52.342;-1.290;2023-02-10T04:55:20;102133.85;;;4.18;78.31
28027;BME280;15344;52.342;-1.290;2023-02-10T04:57:46;102123.08;;;3.82;82.61
28027;BME280;15344;52.342;-1.290;2023-02-10T05:00:12;102117.16;;;4.24;80.07
28027;BME280;15344;52.342;-1.290;2023-02-10T05:02:37;102121.71;;;4.04;81.80
28027;BME280;15344;52.342;-1.290;2023-02-10T05:05:03;102120.73;;;3.73;84.10
28027;BME280;15344;52.342;-1.290;2023-02-10T05:07:28;102118.79;;;3.81;84.10
28027;BME280;15344;52.342;-1.290;2023-02-10T05:09:54;102121.56;;;3.83;84.57
28027;BME280;15344;52.342;-1.290;2023-02-10T05:12:19;102124.61;;;4.26;82.55
28027;BME280;15344;52.342;-1.290;2023-02-10T05:14:45;102121.74;;;3.85;82.74
28027;BME280;15344;52.342;-1.290;2023-02-10T05:17:10;102120.77;;;4.39;81.64
28027;BME280;15344;52.342;-1.290;2023-02-10T05:19:36;102120.19;;;3.40;83.50
28027;BME280;15344;52.342;-1.290;2023-02-10T05:22:01;102121.50;;;3.94;83.33
28027;BME280;15344;52.342;-1.290;2023-02-10T05:24:27;102114.96;;;4.22;81.87
28027;BME280;15344;52.342;-1.290;2023-02-10T05:26:52;102114.23;;;4.02;82.14
28027;BME280;15344;52.342;-1.290;2023-02-10T05:29:18;102120.49;;;3.16;85.49
28027;BME280;15344;52.342;-1.290;2023-02-10T05:31:44;102125.11;;;3.17;85.40
28027;BME280;15344;52.342;-1.290;2023-02-10T05:34:09;102123.35;;;4.41;80.43
28027;BME280;15344;52.342;-1.290;2023-02-10T05:36:34;102126.90;;;3.76;80.60
28027;BME280;15344;52.342;-1.290;2023-02-10T05:39:00;102129.07;;;4.70;78.68
28027;BME280;15344;52.342;-1.290;2023-02-10T05:41:26;102137.86;;;4.61;77.74
28027;BME280;15344;52.342;-1.290;2023-02-10T05:43:51;102137.35;;;4.01;79.42
28027;BME280;15344;52.342;-1.290;2023-02-10T05:46:17;102137.07;;;4.64;77.97
28027;BME280;15344;52.342;-1.290;2023-02-10T05:48:42;102135.82;;;3.55;81.29
28027;BME280;15344;52.342;-1.290;2023-02-10T05:51:08;102136.38;;;4.12;81.68
28027;BME280;15344;52.342;-1.290;2023-02-10T05:53:34;102138.20;;;4.35;80.44
28027;BME280;15344;52.342;-1.290;2023-02-10T05:55:59;102132.61;;;4.60;78.67
28027;BME280;15344;52.342;-1.290;2023-02-10T05:58:25;102128.58;;;4.45;80.45
28027;BME280;15344;52.342;-1.290;2023-02-10T06:00:51;102127.58;;;4.69;78.80
28027;BME280;15344;52.342;-1.290;2023-02-10T06:03:16;102127.25;;;4.27;78.32
28027;BME280;15344;52.342;-1.290;2023-02-10T06:05:42;102132.76;;;4.96;77.55
28027;BME280;15344;52.342;-1.290;2023-02-10T06:08:07;102130.76;;;4.46;78.35
28027;BME280;15344;52.342;-1.290;2023-02-10T06:10:33;102123.40;;;4.74;77.58
28027;BME280;15344;52.342;-1.290;2023-02-10T06:12:58;102131.11;;;4.99;76.36
28027;BME280;15344;52.342;-1.290;2023-02-10T06:15:24;102137.26;;;4.55;77.56
28027;BME280;15344;52.342;-1.290;2023-02-10T06:17:50;102129.22;;;3.55;81.55
28027;BME280;15344;52.342;-1.290;2023-02-10T06:20:16;102129.99;;;4.67;77.34
28027;BME280;15344;52.342;-1.290;2023-02-10T06:22:41;102130.74;;;4.93;75.75
28027;BME280;15344;52.342;-1.290;2023-02-10T06:25:06;102127.94;;;5.30;74.46
28027;BME280;15344;52.342;-1.290;2023-02-10T06:27:32;102124.00;;;5.62;71.28
28027;BME280;15344;52.342;-1.290;2023-02-10T06:29:57;102126.20;;;6.17;70.42
28027;BME280;15344;52.342;-1.290;2023-02-10T06:32:23;102126.24;;;6.30;68.52
28027;BME280;15344;52.342;-1.290;2023-02-10T06:34:49;102120.70;;;5.52;69.13
28027;BME280;15344;52.342;-1.290;2023-02-10T06:37:14;102117.47;;;6.26;67.97
28027;BME280;15344;52.342;-1.290;2023-02-10T06:39:40;102119.60;;;5.99;67.59
28027;BME280;15344;52.342;-1.290;2023-02-10T06:42:06;102121.83;;;6.51;67.13
28027;BME280;15344;52.342;-1.290;2023-02-10T06:44:31;102121.75;;;5.74;67.29
28027;BME280;15344;52.342;-1.290;2023-02-10T06:46:57;102118.20;;;6.15;67.84
28027;BME280;15344;52.342;-1.290;2023-02-10T06:49:23;102118.79;;;5.78;67.97
28027;BME280;15344;52.342;-1.290;2023-02-10T06:51:48;102108.06;;;6.23;68.50
28027;BME280;15344;52.342;-1.290;2023-02-10T06:54:14;102110.12;;;5.82;69.04
28027;BME280;15344;52.342;-1.290;2023-02-10T06:56:39;102110.80;;;5.65;70.74
28027;BME280;15344;52.342;-1.290;2023-02-10T06:59:05;102114.38;;;5.45;70.19
28027;BME280;15344;52.342;-1.290;2023-02-10T07:01:31;102121.11;;;5.10;71.86
28027;BME280;15344;52.342;-1.290;2023-02-10T07:03:56;102120.06;;;5.32;72.14
28027;BME280;15344;52.342;-1.290;2023-02-10T07:06:22;102130.71;;;4.99;71.15
28027;BME280;15344;52.342;-1.290;2023-02-10T07:08:47;102125.28;;;5.55;70.00
28027;BME280;15344;52.342;-1.290;2023-02-10T07:11:13;102118.14;;;5.69;68.64
28027;BME280;15344;52.342;-1.290;2023-02-10T07:13:39;102124.73;;;5.56;68.81
28027;BME280;15344;52.342;-1.290;2023-02-10T07:16:05;102129.19;;;5.42;69.72
28027;BME280;15344;52.342;-1.290;2023-02-10T07:18:30;102129.34;;;4.98;71.01
28027;BME280;15344;52.342;-1.290;2023-02-10T07:20:56;102128.38;;;4.64;72.81
28027;BME280;15344;52.342;-1.290;2023-02-10T07:23:22;102132.34;;;4.87;72.38
28027;BME280;15344;52.342;-1.290;2023-02-10T07:25:48;102136.34;;;5.08;71.45
28027;BME280;15344;52.342;-1.290;2023-02-10T07:28:13;102140.90;;;5.49;71.95
28027;BME280;15344;52.342;-1.290;2023-02-10T07:30:39;102149.19;;;4.90;72.37
28027;BME280;15344;52.342;-1.290;2023-02-10T07:33:04;102148.64;;;4.98;71.84
28027;BME280;15344;52.342;-1.290;2023-02-10T07:35:30;102151.58;;;5.68;70.50
28027;BME280;15344;52.342;-1.290;2023-02-10T07:37:56;102159.92;;;5.55;70.25
28027;BME280;15344;52.342;-1.290;2023-02-10T07:40:22;102156.25;;;5.94;68.74
28027;BME280;15344;52.342;-1.290;2023-02-10T07:42:47;102156.71;;;6.20;67.40
28027;BME280;15344;52.342;-1.290;2023-02-10T07:45:13;102153.08;;;6.11;67.18
28027;BME280;15344;52.342;-1.290;2023-02-10T07:47:38;102159.18;;;6.36;65.82
28027;BME280;15344;52.342;-1.290;2023-02-10T07:50:04;102161.22;;;5.85;66.84
28027;BME280;15344;52.342;-1.290;2023-02-10T07:52:29;102160.66;;;6.19;65.77
28027;BME280;15344;52.342;-1.290;2023-02-10T07:54:55;102164.95;;;6.19;66.02
28027;BME280;15344;52.342;-1.290;2023-02-10T07:57:21;102163.04;;;6.59;65.27
28027;BME280;15344;52.342;-1.290;2023-02-10T07:59:46;102165.02;;;6.55;66.37
28027;BME280;15344;52.342;-1.290;2023-02-10T08:02:12;102159.26;;;5.90;67.88
28027;BME280;15344;52.342;-1.290;2023-02-10T08:04:38;102155.62;;;6.34;67.13
28027;BME280;15344;52.342;-1.290;2023-02-10T08:07:03;102148.82;;;5.44;70.80
28027;BME280;15344;52.342;-1.290;2023-02-10T08:09:29;102157.06;;;4.62;72.13
28027;BME280;15344;52.342;-1.290;2023-02-10T08:11:55;102161.45;;;4.90;73.39
28027;BME280;15344;52.342;-1.290;2023-02-10T08:14:20;102158.96;;;4.75;74.42
28027;BME280;15344;52.342;-1.290;2023-02-10T08:16:46;102156.85;;;5.48;73.06
28027;BME280;15344;52.342;-1.290;2023-02-10T08:19:11;102155.51;;;5.20;73.43
28027;BME280;15344;52.342;-1.290;2023-02-10T08:21:37;102152.38;;;5.37;72.72
28027;BME280;15344;52.342;-1.290;2023-02-10T08:24:02;102164.83;;;5.67;71.92
28027;BME280;15344;52.342;-1.290;2023-02-10T08:26:28;102173.49;;;5.20;73.07
28027;BME280;15344;52.342;-1.290;2023-02-10T08:28:54;102168.68;;;4.09;76.79
28027;BME280;15344;52.342;-1.290;2023-02-10T08:31:21;102174.88;;;4.09;77.03
28027;BME280;15344;52.342;-1.290;2023-02-10T08:33:45;102180.09;;;3.85;77.64
28027;BME280;15344;52.342;-1.290;2023-02-10T08:36:13;102184.36;;;3.65;82.74
28027;BME280;15344;52.342;-1.290;2023-02-10T08:38:37;102184.14;;;3.06;85.60
28027;BME280;15344;52.342;-1.290;2023-02-10T08:41:03;102188.60;;;3.38;85.87
28027;BME280;15344;52.342;-1.290;2023-02-10T08:43:29;102174.30;;;3.36;86.69
28027;BME280;15344;52.342;-1.290;2023-02-10T08:45:55;102168.61;;;3.28;87.76
28027;BME280;15344;52.342;-1.290;2023-02-10T08:48:20;102173.76;;;4.00;85.83
28027;BME280;15344;52.342;-1.290;2023-02-10T08:50:45;102174.38;;;4.14;85.54
28027;BME280;15344;52.342;-1.290;2023-02-10T08:53:10;102167.46;;;3.98;86.99
28027;BME280;15344;52.342;-1.290;2023-02-10T08:55:36;102170.62;;;3.79;87.76
28027;BME280;15344;52.342;-1.290;2023-02-10T08:58:02;102178.31;;;4.61;84.36
28027;BME280;15344;52.342;-1.290;2023-02-10T09:00:29;102180.17;;;4.55;83.40
28027;BME280;15344;52.342;-1.290;2023-02-10T09:02:53;102183.07;;;4.42;84.28
28027;BME280;15344;52.342;-1.290;2023-02-10T09:05:19;102186.53;;;4.92;80.51
28027;BME280;15344;52.342;-1.290;2023-02-10T09:07:45;102181.12;;;5.42;78.91
28027;BME280;15344;52.342;-1.290;2023-02-10T09:10:10;102186.04;;;5.69;76.53
28027;BME280;15344;52.342;-1.290;2023-02-10T09:12:35;102191.23;;;5.24;77.10
28027;BME280;15344;52.342;-1.290;2023-02-10T09:15:00;102189.07;;;5.54;76.81
28027;BME280;15344;52.342;-1.290;2023-02-10T09:17:26;102195.86;;;5.26;79.04
28027;BME280;15344;52.342;-1.290;2023-02-10T09:19:51;102190.14;;;5.27;79.27
28027;BME280;15344;52.342;-1.290;2023-02-10T09:22:17;102187.25;;;5.35;77.45
28027;BME280;15344;52.342;-1.290;2023-02-10T09:24:42;102183.38;;;5.63;77.91
28027;BME280;15344;52.342;-1.290;2023-02-10T09:27:08;102183.04;;;5.84;78.08
28027;BME280;15344;52.342;-1.290;2023-02-10T09:29:33;102181.53;;;5.06;82.38
28027;BME280;15344;52.342;-1.290;2023-02-10T09:31:59;102178.35;;;4.80;84.73
28027;BME280;15344;52.342;-1.290;2023-02-10T09:34:24;102183.86;;;4.88;83.93
28027;BME280;15344;52.342;-1.290;2023-02-10T09:36:50;102184.97;;;4.43;86.77
28027;BME280;15344;52.342;-1.290;2023-02-10T09:39:15;102179.76;;;4.99;84.73
28027;BME280;15344;52.342;-1.290;2023-02-10T09:41:48;102183.67;;;4.99;85.26
28027;BME280;15344;52.342;-1.290;2023-02-10T09:44:13;102177.16;;;4.81;84.94
28027;BME280;15344;52.342;-1.290;2023-02-10T09:46:45;102159.43;;;5.85;82.40
28027;BME280;15344;52.342;-1.290;2023-02-10T09:49:06;102166.96;;;5.20;83.65
28027;BME280;15344;52.342;-1.290;2023-02-10T09:51:33;102167.84;;;5.68;82.12
28027;BME280;15344;52.342;-1.290;2023-02-10T09:53:50;102164.74;;;5.95;79.95
28027;BME280;15344;52.342;-1.290;2023-02-10T09:56:19;102154.61;;;5.86;80.78
28027;BME280;15344;52.342;-1.290;2023-02-10T09:58:42;102155.19;;;6.02;80.04
28027;BME280;15344;52.342;-1.290;2023-02-10T10:01:13;102160.35;;;6.39;78.61
28027;BME280;15344;52.342;-1.290;2023-02-10T10:03:40;102151.45;;;6.37;80.73
28027;BME280;15344;52.342;-1.290;2023-02-10T10:06:06;102142.43;;;6.34;79.79
28027;BME280;15344;52.342;-1.290;2023-02-10T10:08:27;102144.96;;;6.48;79.73
28027;BME280;15344;52.342;-1.290;2023-02-10T10:10:47;102144.60;;;6.71;76.35
28027;BME280;15344;52.342;-1.290;2023-02-10T10:13:14;102141.22;;;6.52;77.75
28027;BME280;15344;52.342;-1.290;2023-02-10T10:15:43;102142.69;;;6.56;78.18
28027;BME280;15344;52.342;-1.290;2023-02-10T10:18:10;102143.77;;;6.46;78.04
28027;BME280;15344;52.342;-1.290;2023-02-10T10:20:41;102149.73;;;6.57;78.74
28027;BME280;15344;52.342;-1.290;2023-02-10T10:23:02;102146.63;;;6.26;78.93
28027;BME280;15344;52.342;-1.290;2023-02-10T10:25:32;102155.56;;;5.99;81.46
28027;BME280;15344;52.342;-1.290;2023-02-10T10:27:54;102147.74;;;6.73;79.91
28027;BME280;15344;52.342;-1.290;2023-02-10T10:30:16;102147.08;;;6.42;82.19
28027;BME280;15344;52.342;-1.290;2023-02-10T10:32:41;102139.83;;;6.48;82.09
28027;BME280;15344;52.342;-1.290;2023-02-10T10:35:02;102138.32;;;5.99;85.90
28027;BME280;15344;52.342;-1.290;2023-02-10T10:37:27;102145.53;;;6.12;86.98
28027;BME280;15344;52.342;-1.290;2023-02-10T10:39:55;102144.20;;;6.09;87.00
28027;BME280;15344;52.342;-1.290;2023-02-10T10:42:23;102153.94;;;5.84;89.16
28027;BME280;15344;52.342;-1.290;2023-02-10T10:44:46;102152.16;;;6.04;85.90
28027;BME280;15344;52.342;-1.290;2023-02-10T10:47:15;102156.12;;;6.69;82.87
28027;BME280;15344;52.342;-1.290;2023-02-10T10:49:35;102145.42;;;7.19;81.67
28027;BME280;15344;52.342;-1.290;2023-02-10T10:52:00;102144.00;;;7.05;81.51
28027;BME280;15344;52.342;-1.290;2023-02-10T10:54:26;102149.11;;;6.70;84.05
28027;BME280;15344;52.342;-1.290;2023-02-10T10:56:54;102147.28;;;5.84;87.80
28027;BME280;15344;52.342;-1.290;2023-02-10T10:59:21;102149.62;;;6.72;85.41
28027;BME280;15344;52.342;-1.290;2023-02-10T11:01:45;102150.92;;;7.07;84.22
28027;BME280;15344;52.342;-1.290;2023-02-10T11:04:13;102151.87;;;6.91;83.15
28027;BME280;15344;52.342;-1.290;2023-02-10T11:06:35;102151.40;;;7.12;83.61
28027;BME280;15344;52.342;-1.290;2023-02-10T11:09:02;102156.02;;;7.19;83.91
28027;BME280;15344;52.342;-1.290;2023-02-10T11:11:31;102152.51;;;6.55;84.48
28027;BME280;15344;52.342;-1.290;2023-02-10T11:13:52;102149.84;;;7.51;81.23
28027;BME280;15344;52.342;-1.290;2023-02-10T11:16:16;102154.73;;;6.90;86.92
28027;BME280;15344;52.342;-1.290;2023-02-10T11:21:09;102143.80;;;6.85;84.42
28027;BME280;15344;52.342;-1.290;2023-02-10T11:23:35;102140.23;;;7.45;83.24
28027;BME280;15344;52.342;-1.290;2023-02-10T11:26:01;102134.30;;;7.18;84.52
28027;BME280;15344;52.342;-1.290;2023-02-10T11:28:26;102135.52;;;7.16;85.12
28027;BME280;15344;52.342;-1.290;2023-02-10T11:30:55;102137.80;;;7.98;82.08
28027;BME280;15344;52.342;-1.290;2023-02-10T11:33:20;102131.73;;;7.80;82.77
28027;BME280;15344;52.342;-1.290;2023-02-10T11:35:46;102130.71;;;8.00;81.65
28027;BME280;15344;52.342;-1.290;2023-02-10T11:38:07;102127.65;;;7.47;84.15
28027;BME280;15344;52.342;-1.290;2023-02-10T11:40:48;102121.06;;;7.54;83.28
28027;BME280;15344;52.342;-1.290;2023-02-10T11:42:56;102121.52;;;7.81;84.59
28027;BME280;15344;52.342;-1.290;2023-02-10T11:45:25;102119.74;;;8.06;84.12
28027;BME280;15344;52.342;-1.290;2023-02-10T11:47:46;102118.32;;;7.31;86.53
28027;BME280;15344;52.342;-1.290;2023-02-10T11:50:19;102113.24;;;7.30;87.75
28027;BME280;15344;52.342;-1.290;2023-02-10T11:52:38;102112.28;;;7.08;89.81
28027;BME280;15344;52.342;-1.290;2023-02-10T11:55:07;102111.41;;;7.18;90.14
28027;BME280;15344;52.342;-1.290;2023-02-10T11:57:39;102112.80;;;7.68;88.88
28027;BME280;15344;52.342;-1.290;2023-02-10T12:00:03;102116.10;;;7.89;88.79
28027;BME280;15344;52.342;-1.290;2023-02-10T12:02:28;102113.93;;;8.00;87.30
28027;BME280;15344;52.342;-1.290;2023-02-10T12:05:00;102111.04;;;8.00;88.17
28027;BME280;15344;52.342;-1.290;2023-02-10T12:07:20;102108.86;;;8.20;88.19
28027;BME280;15344;52.342;-1.290;2023-02-10T12:09:40;102104.77;;;8.82;86.59
28027;BME280;15344;52.342;-1.290;2023-02-10T12:12:08;102101.01;;;8.55;85.86
28027;BME280;15344;52.342;-1.290;2023-02-10T12:14:37;102098.75;;;9.46;81.75
28027;BME280;15344;52.342;-1.290;2023-02-10T12:17:01;102105.85;;;8.77;83.75
28027;BME280;15344;52.342;-1.290;2023-02-10T12:19:23;102106.71;;;9.75;80.50
28027;BME280;15344;52.342;-1.290;2023-02-10T12:21:53;102108.65;;;9.21;83.53
28027;BME280;15344;52.342;-1.290;2023-02-10T12:24:20;102103.30;;;8.78;85.68
28027;BME280;15344;52.342;-1.290;2023-02-10T12:26:42;102099.61;;;9.11;84.83
28027;BME280;15344;52.342;-1.290;2023-02-10T12:29:13;102107.99;;;9.20;85.72
28027;BME280;15344;52.342;-1.290;2023-02-10T12:31:34;102101.76;;;9.42;84.45
28027;BME280;15344;52.342;-1.290;2023-02-10T12:34:04;102098.84;;;8.86;85.71
28027;BME280;15344;52.342;-1.290;2023-02-10T12:36:22;102096.86;;;9.24;84.83
28027;BME280;15344;52.342;-1.290;2023-02-10T12:38:55;102095.95;;;9.51;84.64
28027;BME280;15344;52.342;-1.290;2023-02-10T12:41:15;102092.76;;;9.76;82.28
28027;BME280;15344;52.342;-1.290;2023-02-10T12:43:45;102088.03;;;10.09;83.84
28027;BME280;15344;52.342;-1.290;2023-02-10T12:46:07;102080.66;;;9.68;84.21
28027;BME280;15344;52.342;-1.290;2023-02-10T12:48:29;102075.38;;;10.18;82.35
28027;BME280;15344;52.342;-1.290;2023-02-10T12:51:03;102077.34;;;10.35;80.99
28027;BME280;15344;52.342;-1.290;2023-02-10T12:53:18;102070.49;;;10.42;79.92